KDLH/DLH METAR and TAF weather

Enter ICAO airport designator
Station Type Date Time Source
KDLH METAR 2020/02/19 10:55 UTC NOAA

KDLH 191055Z 31007KT 10SM CLR M23/M26 A3046 RMK AO2 SLP359 T12331261


Station Type Date Time Source
KDLH Decoded METAR 2020/02/19 10:55 UTC NOAA

Duluth, Duluth International Airport, MN, United States (KDLH) 46-50-34N 092-13-34W 435M
Feb 19, 2020 - 05:55 AM EST / 2020.02.19 1055 UTC
Wind: from the NW (310 degrees) at 8 MPH (7 KT):0
Visibility: 10 mile(s):0
Sky conditions: clear
Temperature: -9.9 F (-23.3 C)
Windchill: -25 F (-32 C):2
Dew Point: -15.0 F (-26.1 C)
Relative Humidity: 77%
Pressure (altimeter): 30.46 in. Hg (1031 hPa)
ob: KDLH 191055Z 31007KT 10SM CLR M23/M26 A3046 RMK AO2 SLP359 T12331261
cycle: 11

Station Type Date Time Source
KDLH TAF 2020/02/19 12:22 UTC NOAA

TAF KDLH 191120Z 1912/2012 31008KT P6SM SKC

Example: see airport list